Overview Statistics Trail Chart Weather Telemetry Raw packets
 

This is the latest recevied weather packets stored in our database for station/object AI5BL. If no packets are shown the sender has not sent any weather packets the latest 10 day(s).

<< 85 86 87 88 89 90 91 >>
Time Temp. Humidity Pressure Rain* Wind** Luminosity Snow
1788026122 31.11° C 62% 1019.9 hPa 0 mm - 158 W/m² -
1788025821 30.56° C 72% 1019.9 hPa 0 mm - 164 W/m² -
1788025520 30.56° C 67% 1019.8 hPa 0 mm - 197 W/m² -
1788025215 30.56° C 68% 1020.1 hPa 0 mm - 192 W/m² -
1788024910 31.67° C 65% 1020.1 hPa 0 mm - 173 W/m² -
1788024606 32.78° C 55% 1020.1 hPa 0 mm - 138 W/m² -
1788024301 33.33° C 53% 1020.3 hPa 0 mm - 153 W/m² -
1788023996 33.33° C 55% 1020.3 hPa 0 mm - 168 W/m² -
1788023691 32.78° C 56% 1020.2 hPa 0 mm - 336 W/m² -
1788023387 32.22° C 55% 1020.4 hPa 0 mm - 788 W/m² -
1788023086 32.78° C 53% 1020.3 hPa 0 mm - 202 W/m² -
1788022785 32.78° C 53% 1020.3 hPa 0 mm - 198 W/m² -
1788022483 33.33° C 50% 1020.5 hPa 0 mm - 147 W/m² -
1788022178 33.89° C 45% 1020.5 hPa 0 mm - 231 W/m² -
1788021877 33.89° C 52% 1020.4 hPa 0 mm - 339 W/m² -
1788021577 33.89° C 52% 1020.5 hPa 0 mm - 740 W/m² -
1788021275 33.89° C 53% 1020.4 hPa 0 mm - 697 W/m² -
1788020970 33.33° C 52% 1020.5 hPa 0 mm - 704 W/m² -
1788020665 33.33° C 53% 1020.4 hPa 0 mm - 689 W/m² -
1788020361 32.78° C 52% 1020.5 hPa 0 mm - 677 W/m² -
1788020058 32.78° C 56% 1020.5 hPa 0 mm - 147 W/m² -
1788019757 32.78° C 57% 1020.5 hPa 0 mm - 168 W/m² -
1788019457 33.33° C 56% 1020.8 hPa 0 mm - 623 W/m² -
1788019154 32.78° C 57% 1020.8 hPa 0 mm - 605 W/m² -
1788018849 32.22° C 63% 1020.7 hPa 0 mm - 602 W/m² -

* Rain latest hour (hover to see other rain measurements)
** Current wind speed in m/s (hover to see current wind gust speed)